sensor_id;sensor_type;location;lat;lon;timestamp;pressure;altitude;pressure_sealevel;temperature;humidity
50368;BME280;36281;34.132;-118.018;2023-02-10T00:02:08;100562.28;;;26.03;15.58
50368;BME280;36281;34.132;-118.018;2023-02-10T00:04:37;100567.81;;;25.98;15.54
50368;BME280;36281;34.132;-118.018;2023-02-10T00:07:07;100555.63;;;25.95;15.88
50368;BME280;36281;34.132;-118.018;2023-02-10T00:09:36;100552.72;;;25.92;16.84
50368;BME280;36281;34.132;-118.018;2023-02-10T00:12:06;100560.13;;;25.86;17.39
50368;BME280;36281;34.132;-118.018;2023-02-10T00:14:38;100557.50;;;25.81;17.70
50368;BME280;36281;34.132;-118.018;2023-02-10T00:17:07;100560.00;;;25.77;17.81
50368;BME280;36281;34.132;-118.018;2023-02-10T00:19:36;100560.34;;;25.71;17.53
50368;BME280;36281;34.132;-118.018;2023-02-10T00:22:07;100554.19;;;25.65;17.85
50368;BME280;36281;34.132;-118.018;2023-02-10T00:24:36;100554.78;;;25.62;18.10
50368;BME280;36281;34.132;-118.018;2023-02-10T00:27:05;100554.88;;;25.57;18.54
50368;BME280;36281;34.132;-118.018;2023-02-10T00:29:34;100554.16;;;25.51;18.73
50368;BME280;36281;34.132;-118.018;2023-02-10T00:32:03;100553.38;;;25.46;19.06
50368;BME280;36281;34.132;-118.018;2023-02-10T00:34:32;100549.16;;;25.40;19.04
50368;BME280;36281;34.132;-118.018;2023-02-10T00:37:01;100552.25;;;25.33;18.69
50368;BME280;36281;34.132;-118.018;2023-02-10T00:39:32;100551.50;;;25.27;18.31
50368;BME280;36281;34.132;-118.018;2023-02-10T00:42:01;100551.59;;;25.22;18.19
50368;BME280;36281;34.132;-118.018;2023-02-10T00:44:30;100555.16;;;25.18;18.38
50368;BME280;36281;34.132;-118.018;2023-02-10T00:46:59;100552.81;;;25.11;18.94
50368;BME280;36281;34.132;-118.018;2023-02-10T00:49:28;100554.75;;;25.06;18.33
50368;BME280;36281;34.132;-118.018;2023-02-10T00:51:57;100554.31;;;24.98;18.64
50368;BME280;36281;34.132;-118.018;2023-02-10T00:54:27;100545.44;;;24.93;17.96
50368;BME280;36281;34.132;-118.018;2023-02-10T00:56:57;100546.06;;;24.85;18.42
50368;BME280;36281;34.132;-118.018;2023-02-10T00:59:26;100548.34;;;24.78;18.38
50368;BME280;36281;34.132;-118.018;2023-02-10T01:01:55;100553.88;;;24.67;18.84
50368;BME280;36281;34.132;-118.018;2023-02-10T01:04:24;100554.00;;;24.57;19.13
50368;BME280;36281;34.132;-118.018;2023-02-10T01:06:53;100558.44;;;24.48;19.48
50368;BME280;36281;34.132;-118.018;2023-02-10T01:09:22;100558.25;;;24.39;20.05
50368;BME280;36281;34.132;-118.018;2023-02-10T01:11:51;100559.94;;;24.30;20.44
50368;BME280;36281;34.132;-118.018;2023-02-10T01:14:22;100557.63;;;24.18;22.11
50368;BME280;36281;34.132;-118.018;2023-02-10T01:16:52;100559.06;;;24.06;22.48
50368;BME280;36281;34.132;-118.018;2023-02-10T01:19:21;100554.59;;;23.91;22.69
50368;BME280;36281;34.132;-118.018;2023-02-10T01:21:50;100557.19;;;23.77;23.34
50368;BME280;36281;34.132;-118.018;2023-02-10T01:24:19;100567.25;;;23.61;22.64
50368;BME280;36281;34.132;-118.018;2023-02-10T01:26:48;100568.16;;;23.46;22.99
50368;BME280;36281;34.132;-118.018;2023-02-10T01:29:18;100566.34;;;23.32;23.56
50368;BME280;36281;34.132;-118.018;2023-02-10T01:31:48;100579.94;;;23.16;24.18
50368;BME280;36281;34.132;-118.018;2023-02-10T01:34:18;100574.06;;;23.04;26.96
50368;BME280;36281;34.132;-118.018;2023-02-10T01:36:47;100579.53;;;22.89;28.87
50368;BME280;36281;34.132;-118.018;2023-02-10T01:39:16;100583.34;;;22.73;27.23
50368;BME280;36281;34.132;-118.018;2023-02-10T01:41:45;100584.47;;;22.56;25.48
50368;BME280;36281;34.132;-118.018;2023-02-10T01:47:21;100587.75;;;22.23;25.01
50368;BME280;36281;34.132;-118.018;2023-02-10T01:49:51;100589.38;;;22.08;25.18
50368;BME280;36281;34.132;-118.018;2023-02-10T01:52:22;100592.88;;;21.99;25.14
50368;BME280;36281;34.132;-118.018;2023-02-10T01:54:57;100597.44;;;21.88;25.39
50368;BME280;36281;34.132;-118.018;2023-02-10T01:57:29;100599.59;;;21.76;24.83
50368;BME280;36281;34.132;-118.018;2023-02-10T02:00:01;100604.97;;;21.65;25.45
50368;BME280;36281;34.132;-118.018;2023-02-10T02:02:32;100601.16;;;21.56;25.85
50368;BME280;36281;34.132;-118.018;2023-02-10T02:05:05;100616.50;;;21.46;25.59
50368;BME280;36281;34.132;-118.018;2023-02-10T02:07:36;100619.72;;;21.37;26.81
50368;BME280;36281;34.132;-118.018;2023-02-10T02:10:06;100620.47;;;21.28;27.75
50368;BME280;36281;34.132;-118.018;2023-02-10T02:12:43;100622.56;;;21.15;28.02
50368;BME280;36281;34.132;-118.018;2023-02-10T02:15:19;100630.88;;;21.04;27.92
50368;BME280;36281;34.132;-118.018;2023-02-10T02:17:57;100632.16;;;20.91;28.81
50368;BME280;36281;34.132;-118.018;2023-02-10T02:27:20;100640.72;;;20.46;30.52
50368;BME280;36281;34.132;-118.018;2023-02-10T02:30:29;100637.63;;;20.27;30.30
50368;BME280;36281;34.132;-118.018;2023-02-10T02:33:07;100631.63;;;20.14;30.59
50368;BME280;36281;34.132;-118.018;2023-02-10T02:35:40;100638.22;;;20.02;30.92
50368;BME280;36281;34.132;-118.018;2023-02-10T02:38:13;100648.63;;;19.93;32.17
50368;BME280;36281;34.132;-118.018;2023-02-10T02:40:42;100650.66;;;19.81;30.96
50368;BME280;36281;34.132;-118.018;2023-02-10T02:43:11;100640.63;;;19.71;30.34
50368;BME280;36281;34.132;-118.018;2023-02-10T02:45:50;100654.50;;;19.63;31.49
50368;BME280;36281;34.132;-118.018;2023-02-10T02:48:40;100650.31;;;19.50;32.44
50368;BME280;36281;34.132;-118.018;2023-02-10T02:51:21;100658.47;;;19.38;31.74
50368;BME280;36281;34.132;-118.018;2023-02-10T02:53:58;100658.13;;;19.30;32.13
50368;BME280;36281;34.132;-118.018;2023-02-10T02:56:34;100662.31;;;19.21;33.22
50368;BME280;36281;34.132;-118.018;2023-02-10T02:59:10;100672.91;;;19.10;33.43
50368;BME280;36281;34.132;-118.018;2023-02-10T03:01:44;100666.59;;;19.00;33.48
50368;BME280;36281;34.132;-118.018;2023-02-10T03:04:17;100664.31;;;18.92;33.32
50368;BME280;36281;34.132;-118.018;2023-02-10T03:06:46;100674.41;;;18.84;32.91
50368;BME280;36281;34.132;-118.018;2023-02-10T03:09:15;100673.78;;;18.77;33.16
50368;BME280;36281;34.132;-118.018;2023-02-10T03:11:44;100668.59;;;18.71;33.83
50368;BME280;36281;34.132;-118.018;2023-02-10T03:14:13;100674.34;;;18.63;33.53
50368;BME280;36281;34.132;-118.018;2023-02-10T03:16:42;100674.50;;;18.56;33.38
50368;BME280;36281;34.132;-118.018;2023-02-10T03:19:11;100671.97;;;18.49;33.43
50368;BME280;36281;34.132;-118.018;2023-02-10T03:21:42;100680.44;;;18.41;33.49
50368;BME280;36281;34.132;-118.018;2023-02-10T03:24:11;100687.81;;;18.34;33.70
50368;BME280;36281;34.132;-118.018;2023-02-10T03:26:40;100677.25;;;18.27;34.27
50368;BME280;36281;34.132;-118.018;2023-02-10T03:29:10;100682.78;;;18.21;34.90
50368;BME280;36281;34.132;-118.018;2023-02-10T03:31:40;100684.78;;;18.14;35.00
50368;BME280;36281;34.132;-118.018;2023-02-10T03:34:09;100685.19;;;18.05;34.92
50368;BME280;36281;34.132;-118.018;2023-02-10T03:36:38;100687.19;;;17.98;33.68
50368;BME280;36281;34.132;-118.018;2023-02-10T03:39:09;100681.19;;;17.91;35.30
50368;BME280;36281;34.132;-118.018;2023-02-10T03:41:38;100678.88;;;17.83;34.71
50368;BME280;36281;34.132;-118.018;2023-02-10T03:44:07;100679.84;;;17.77;34.98
50368;BME280;36281;34.132;-118.018;2023-02-10T03:46:44;100681.50;;;17.66;35.02
50368;BME280;36281;34.132;-118.018;2023-02-10T03:49:13;100682.41;;;17.60;34.09
50368;BME280;36281;34.132;-118.018;2023-02-10T03:51:42;100688.72;;;17.54;33.87
50368;BME280;36281;34.132;-118.018;2023-02-10T03:54:13;100687.81;;;17.48;34.38
50368;BME280;36281;34.132;-118.018;2023-02-10T03:56:42;100684.22;;;17.43;34.92
50368;BME280;36281;34.132;-118.018;2023-02-10T03:59:12;100696.72;;;17.37;35.07
50368;BME280;36281;34.132;-118.018;2023-02-10T04:01:41;100693.94;;;17.32;35.28
50368;BME280;36281;34.132;-118.018;2023-02-10T04:04:10;100691.59;;;17.24;35.54
50368;BME280;36281;34.132;-118.018;2023-02-10T04:06:39;100700.13;;;17.21;35.02
50368;BME280;36281;34.132;-118.018;2023-02-10T04:09:10;100697.53;;;17.14;35.26
50368;BME280;36281;34.132;-118.018;2023-02-10T04:11:40;100704.66;;;17.09;36.70
50368;BME280;36281;34.132;-118.018;2023-02-10T04:14:09;100705.59;;;17.02;36.01
50368;BME280;36281;34.132;-118.018;2023-02-10T04:16:38;100718.25;;;16.95;36.44
50368;BME280;36281;34.132;-118.018;2023-02-10T04:19:08;100718.38;;;16.89;36.90
50368;BME280;36281;34.132;-118.018;2023-02-10T04:21:37;100717.91;;;16.80;36.65
50368;BME280;36281;34.132;-118.018;2023-02-10T04:24:06;100708.50;;;16.77;37.13
50368;BME280;36281;34.132;-118.018;2023-02-10T04:26:35;100709.63;;;16.70;36.10
50368;BME280;36281;34.132;-118.018;2023-02-10T04:29:06;100708.56;;;16.59;36.32
50368;BME280;36281;34.132;-118.018;2023-02-10T04:31:38;100710.31;;;16.53;36.46
50368;BME280;36281;34.132;-118.018;2023-02-10T04:34:07;100709.38;;;16.48;36.47
50368;BME280;36281;34.132;-118.018;2023-02-10T04:36:36;100708.63;;;16.41;37.33
50368;BME280;36281;34.132;-118.018;2023-02-10T04:39:06;100718.19;;;16.37;36.86
50368;BME280;36281;34.132;-118.018;2023-02-10T04:41:35;100704.69;;;16.32;37.22
50368;BME280;36281;34.132;-118.018;2023-02-10T04:44:06;100712.78;;;16.25;37.14
50368;BME280;36281;34.132;-118.018;2023-02-10T04:46:35;100714.28;;;16.21;37.61
50368;BME280;36281;34.132;-118.018;2023-02-10T04:49:04;100729.03;;;16.12;38.99
50368;BME280;36281;34.132;-118.018;2023-02-10T04:51:33;100724.81;;;16.04;38.49
50368;BME280;36281;34.132;-118.018;2023-02-10T04:54:02;100735.59;;;15.97;39.08
50368;BME280;36281;34.132;-118.018;2023-02-10T04:56:31;100732.78;;;15.92;39.29
50368;BME280;36281;34.132;-118.018;2023-02-10T04:59:00;100736.13;;;15.88;39.36
50368;BME280;36281;34.132;-118.018;2023-02-10T05:01:31;100730.84;;;15.81;39.49
50368;BME280;36281;34.132;-118.018;2023-02-10T05:04:01;100741.03;;;15.72;39.46
50368;BME280;36281;34.132;-118.018;2023-02-10T05:06:31;100738.44;;;15.66;38.33
50368;BME280;36281;34.132;-118.018;2023-02-10T05:09:00;100739.91;;;15.62;39.29
50368;BME280;36281;34.132;-118.018;2023-02-10T05:11:29;100745.53;;;15.54;39.83
50368;BME280;36281;34.132;-118.018;2023-02-10T05:13:58;100753.16;;;15.50;39.69
50368;BME280;36281;34.132;-118.018;2023-02-10T05:16:27;100750.81;;;15.42;39.73
50368;BME280;36281;34.132;-118.018;2023-02-10T05:18:58;100756.81;;;15.37;39.60
50368;BME280;36281;34.132;-118.018;2023-02-10T05:21:27;100756.44;;;15.34;39.20
50368;BME280;36281;34.132;-118.018;2023-02-10T05:23:57;100760.34;;;15.31;39.49
50368;BME280;36281;34.132;-118.018;2023-02-10T05:26:28;100767.75;;;15.29;39.12
50368;BME280;36281;34.132;-118.018;2023-02-10T05:28:57;100773.34;;;15.28;39.24
50368;BME280;36281;34.132;-118.018;2023-02-10T05:31:26;100769.25;;;15.25;38.92
50368;BME280;36281;34.132;-118.018;2023-02-10T05:33:57;100771.75;;;15.20;38.93
50368;BME280;36281;34.132;-118.018;2023-02-10T05:36:26;100767.88;;;15.16;39.33
50368;BME280;36281;34.132;-118.018;2023-02-10T05:38:56;100755.44;;;15.10;39.20
50368;BME280;36281;34.132;-118.018;2023-02-10T05:41:43;100763.28;;;15.05;38.52
50368;BME280;36281;34.132;-118.018;2023-02-10T05:44:12;100762.31;;;14.99;38.48
50368;BME280;36281;34.132;-118.018;2023-02-10T05:46:42;100774.44;;;14.95;38.83
50368;BME280;36281;34.132;-118.018;2023-02-10T05:49:13;100779.38;;;14.91;39.15
50368;BME280;36281;34.132;-118.018;2023-02-10T05:51:43;100774.94;;;14.85;38.72
50368;BME280;36281;34.132;-118.018;2023-02-10T05:54:12;100776.19;;;14.83;39.00
50368;BME280;36281;34.132;-118.018;2023-02-10T05:56:41;100769.66;;;14.79;39.07
50368;BME280;36281;34.132;-118.018;2023-02-10T05:59:11;100777.03;;;14.77;39.76
50368;BME280;36281;34.132;-118.018;2023-02-10T06:01:44;100785.72;;;14.72;39.16
50368;BME280;36281;34.132;-118.018;2023-02-10T06:04:14;100782.88;;;14.67;39.35
50368;BME280;36281;34.132;-118.018;2023-02-10T06:06:44;100771.44;;;14.60;39.58
50368;BME280;36281;34.132;-118.018;2023-02-10T06:09:13;100771.47;;;14.53;39.69
50368;BME280;36281;34.132;-118.018;2023-02-10T06:11:42;100772.94;;;14.49;39.96
50368;BME280;36281;34.132;-118.018;2023-02-10T06:14:11;100778.06;;;14.44;40.04
50368;BME280;36281;34.132;-118.018;2023-02-10T06:16:40;100777.66;;;14.40;40.46
50368;BME280;36281;34.132;-118.018;2023-02-10T06:19:10;100767.47;;;14.37;40.29
50368;BME280;36281;34.132;-118.018;2023-02-10T06:21:41;100769.94;;;14.32;40.16
50368;BME280;36281;34.132;-118.018;2023-02-10T06:24:10;100766.25;;;14.27;40.04
50368;BME280;36281;34.132;-118.018;2023-02-10T06:26:39;100770.19;;;14.24;40.42
50368;BME280;36281;34.132;-118.018;2023-02-10T06:29:08;100769.78;;;14.20;39.80
50368;BME280;36281;34.132;-118.018;2023-02-10T06:31:37;100765.31;;;14.14;40.25
50368;BME280;36281;34.132;-118.018;2023-02-10T06:34:06;100758.56;;;14.12;40.46
50368;BME280;36281;34.132;-118.018;2023-02-10T06:36:36;100764.56;;;14.07;40.35
50368;BME280;36281;34.132;-118.018;2023-02-10T06:39:10;100761.69;;;14.02;40.35
50368;BME280;36281;34.132;-118.018;2023-02-10T06:41:40;100754.13;;;13.99;40.23
50368;BME280;36281;34.132;-118.018;2023-02-10T06:44:11;100759.06;;;13.95;40.14
50368;BME280;36281;34.132;-118.018;2023-02-10T06:46:40;100755.19;;;13.91;40.23
50368;BME280;36281;34.132;-118.018;2023-02-10T06:49:09;100757.25;;;13.89;40.23
50368;BME280;36281;34.132;-118.018;2023-02-10T06:51:40;100759.50;;;13.86;39.49
50368;BME280;36281;34.132;-118.018;2023-02-10T06:54:11;100753.59;;;13.84;40.75
50368;BME280;36281;34.132;-118.018;2023-02-10T06:56:40;100762.19;;;13.79;40.88
50368;BME280;36281;34.132;-118.018;2023-02-10T06:59:10;100769.78;;;13.76;39.95
50368;BME280;36281;34.132;-118.018;2023-02-10T07:01:39;100758.72;;;13.72;39.95
50368;BME280;36281;34.132;-118.018;2023-02-10T07:04:09;100759.16;;;13.69;39.77
50368;BME280;36281;34.132;-118.018;2023-02-10T07:06:39;100751.00;;;13.64;39.85
50368;BME280;36281;34.132;-118.018;2023-02-10T07:09:08;100748.75;;;13.61;40.68
50368;BME280;36281;34.132;-118.018;2023-02-10T07:11:39;100756.31;;;13.57;39.92
50368;BME280;36281;34.132;-118.018;2023-02-10T07:14:08;100766.78;;;13.52;39.34
50368;BME280;36281;34.132;-118.018;2023-02-10T07:16:37;100767.44;;;13.48;40.51
50368;BME280;36281;34.132;-118.018;2023-02-10T07:19:06;100770.50;;;13.44;40.93
50368;BME280;36281;34.132;-118.018;2023-02-10T07:21:35;100767.22;;;13.42;40.57
50368;BME280;36281;34.132;-118.018;2023-02-10T07:24:07;100766.84;;;13.39;41.22
50368;BME280;36281;34.132;-118.018;2023-02-10T07:26:38;100765.81;;;13.33;41.87
50368;BME280;36281;34.132;-118.018;2023-02-10T07:29:07;100760.31;;;13.28;41.25
50368;BME280;36281;34.132;-118.018;2023-02-10T07:31:38;100761.75;;;13.24;42.41
50368;BME280;36281;34.132;-118.018;2023-02-10T07:34:07;100764.16;;;13.19;42.29
50368;BME280;36281;34.132;-118.018;2023-02-10T07:36:36;100765.81;;;13.13;42.50
50368;BME280;36281;34.132;-118.018;2023-02-10T07:39:05;100775.22;;;13.09;43.07
50368;BME280;36281;34.132;-118.018;2023-02-10T07:41:38;100768.91;;;13.04;42.85
50368;BME280;36281;34.132;-118.018;2023-02-10T07:44:07;100771.75;;;13.02;43.49
50368;BME280;36281;34.132;-118.018;2023-02-10T07:46:37;100772.56;;;12.96;43.19
50368;BME280;36281;34.132;-118.018;2023-02-10T07:49:08;100771.16;;;12.93;42.76
50368;BME280;36281;34.132;-118.018;2023-02-10T07:51:37;100775.03;;;12.91;42.98
50368;BME280;36281;34.132;-118.018;2023-02-10T07:54:06;100778.09;;;12.88;42.62
50368;BME280;36281;34.132;-118.018;2023-02-10T07:56:35;100777.25;;;12.87;42.11
50368;BME280;36281;34.132;-118.018;2023-02-10T07:59:06;100765.41;;;12.83;41.56
50368;BME280;36281;34.132;-118.018;2023-02-10T08:01:35;100765.41;;;12.83;40.39
50368;BME280;36281;34.132;-118.018;2023-02-10T08:04:10;100760.72;;;12.85;40.45
50368;BME280;36281;34.132;-118.018;2023-02-10T08:06:39;100767.25;;;12.83;40.72
50368;BME280;36281;34.132;-118.018;2023-02-10T08:09:08;100760.91;;;12.84;39.51
50368;BME280;36281;34.132;-118.018;2023-02-10T08:11:38;100761.53;;;12.86;38.99
50368;BME280;36281;34.132;-118.018;2023-02-10T08:14:08;100765.81;;;12.87;39.35
50368;BME280;36281;34.132;-118.018;2023-02-10T08:16:37;100763.97;;;12.87;39.72
50368;BME280;36281;34.132;-118.018;2023-02-10T08:19:06;100750.69;;;12.87;39.34
50368;BME280;36281;34.132;-118.018;2023-02-10T08:21:36;100751.69;;;12.86;39.26
50368;BME280;36281;34.132;-118.018;2023-02-10T08:24:05;100748.63;;;12.83;39.15
50368;BME280;36281;34.132;-118.018;2023-02-10T08:26:34;100750.69;;;12.81;39.83
50368;BME280;36281;34.132;-118.018;2023-02-10T08:29:03;100751.94;;;12.78;40.51
50368;BME280;36281;34.132;-118.018;2023-02-10T08:31:34;100742.72;;;12.74;39.67
50368;BME280;36281;34.132;-118.018;2023-02-10T08:34:03;100745.78;;;12.71;40.25
50368;BME280;36281;34.132;-118.018;2023-02-10T08:36:32;100741.88;;;12.67;40.39
50368;BME280;36281;34.132;-118.018;2023-02-10T08:39:01;100736.19;;;12.63;40.59
50368;BME280;36281;34.132;-118.018;2023-02-10T08:41:31;100732.88;;;12.61;40.94
50368;BME280;36281;34.132;-118.018;2023-02-10T08:44:00;100740.44;;;12.58;41.25
50368;BME280;36281;34.132;-118.018;2023-02-10T08:46:29;100741.47;;;12.50;41.54
50368;BME280;36281;34.132;-118.018;2023-02-10T08:49:00;100737.78;;;12.45;41.72
50368;BME280;36281;34.132;-118.018;2023-02-10T08:51:29;100733.09;;;12.40;42.35
50368;BME280;36281;34.132;-118.018;2023-02-10T08:54:01;100728.38;;;12.35;42.28
50368;BME280;36281;34.132;-118.018;2023-02-10T08:56:30;100720.19;;;12.30;42.06
50368;BME280;36281;34.132;-118.018;2023-02-10T08:58:59;100719.16;;;12.25;42.34
50368;BME280;36281;34.132;-118.018;2023-02-10T09:01:28;100723.03;;;12.22;42.36
50368;BME280;36281;34.132;-118.018;2023-02-10T09:03:59;100724.25;;;12.20;42.48
50368;BME280;36281;34.132;-118.018;2023-02-10T09:06:30;100714.25;;;12.15;42.79
50368;BME280;36281;34.132;-118.018;2023-02-10T09:09:01;100716.25;;;12.13;42.36
50368;BME280;36281;34.132;-118.018;2023-02-10T09:11:30;100719.94;;;12.12;42.31
50368;BME280;36281;34.132;-118.018;2023-02-10T09:13:59;100724.00;;;12.08;42.22
50368;BME280;36281;34.132;-118.018;2023-02-10T09:16:28;100715.44;;;12.06;42.14
50368;BME280;36281;34.132;-118.018;2023-02-10T09:18:59;100716.63;;;12.03;42.50
50368;BME280;36281;34.132;-118.018;2023-02-10T09:21:29;100717.88;;;12.01;41.88
50368;BME280;36281;34.132;-118.018;2023-02-10T09:24:13;100724.59;;;11.97;41.43
50368;BME280;36281;34.132;-118.018;2023-02-10T09:26:42;100719.72;;;11.94;42.12
50368;BME280;36281;34.132;-118.018;2023-02-10T09:29:12;100700.50;;;11.92;41.71
50368;BME280;36281;34.132;-118.018;2023-02-10T09:31:41;100703.16;;;11.92;41.99
50368;BME280;36281;34.132;-118.018;2023-02-10T09:34:12;100698.84;;;11.90;41.68
50368;BME280;36281;34.132;-118.018;2023-02-10T09:36:41;100700.91;;;11.88;41.72
50368;BME280;36281;34.132;-118.018;2023-02-10T09:39:10;100694.16;;;11.86;42.37
50368;BME280;36281;34.132;-118.018;2023-02-10T09:41:51;100687.22;;;11.85;42.41
50368;BME280;36281;34.132;-118.018;2023-02-10T09:44:24;100680.44;;;11.82;42.27
50368;BME280;36281;34.132;-118.018;2023-02-10T09:47:04;100687.13;;;11.78;42.37
50368;BME280;36281;34.132;-118.018;2023-02-10T09:52:46;100678.13;;;11.73;42.32
50368;BME280;36281;34.132;-118.018;2023-02-10T09:55:25;100670.59;;;11.70;42.69
50368;BME280;36281;34.132;-118.018;2023-02-10T09:57:59;100671.19;;;11.65;43.54
50368;BME280;36281;34.132;-118.018;2023-02-10T10:00:31;100680.34;;;11.62;43.62
50368;BME280;36281;34.132;-118.018;2023-02-10T10:03:05;100673.63;;;11.60;43.76
50368;BME280;36281;34.132;-118.018;2023-02-10T10:05:45;100662.56;;;11.50;43.39
50368;BME280;36281;34.132;-118.018;2023-02-10T10:08:23;100663.97;;;11.46;43.81
50368;BME280;36281;34.132;-118.018;2023-02-10T10:10:56;100664.19;;;11.44;43.88
50368;BME280;36281;34.132;-118.018;2023-02-10T10:13:29;100658.03;;;11.44;43.98
50368;BME280;36281;34.132;-118.018;2023-02-10T10:16:09;100663.75;;;11.41;43.82
50368;BME280;36281;34.132;-118.018;2023-02-10T10:18:52;100663.53;;;11.35;44.65
50368;BME280;36281;34.132;-118.018;2023-02-10T10:21:29;100656.16;;;11.31;44.16
50368;BME280;36281;34.132;-118.018;2023-02-10T10:24:20;100659.19;;;11.28;44.71
50368;BME280;36281;34.132;-118.018;2023-02-10T10:26:58;100663.25;;;11.24;45.20
50368;BME280;36281;34.132;-118.018;2023-02-10T10:29:40;100665.06;;;11.17;45.59
50368;BME280;36281;34.132;-118.018;2023-02-10T10:32:15;100660.13;;;11.13;45.54
50368;BME280;36281;34.132;-118.018;2023-02-10T10:34:50;100652.97;;;11.07;45.32
50368;BME280;36281;34.132;-118.018;2023-02-10T10:37:22;100659.50;;;11.05;45.22
50368;BME280;36281;34.132;-118.018;2023-02-10T10:39:53;100655.59;;;11.01;44.60
50368;BME280;36281;34.132;-118.018;2023-02-10T10:42:26;100649.63;;;10.99;44.42
50368;BME280;36281;34.132;-118.018;2023-02-10T10:44:59;100653.31;;;10.98;44.21
50368;BME280;36281;34.132;-118.018;2023-02-10T10:47:38;100651.06;;;10.95;43.87
50368;BME280;36281;34.132;-118.018;2023-02-10T10:50:13;100652.25;;;10.92;44.08
50368;BME280;36281;34.132;-118.018;2023-02-10T10:52:46;100647.59;;;10.94;44.01
50368;BME280;36281;34.132;-118.018;2023-02-10T10:55:24;100641.47;;;10.94;43.87
50368;BME280;36281;34.132;-118.018;2023-02-10T10:57:56;100634.16;;;10.96;42.83
50368;BME280;36281;34.132;-118.018;2023-02-10T11:00:29;100632.09;;;10.98;42.14
50368;BME280;36281;34.132;-118.018;2023-02-10T11:02:59;100628.66;;;10.97;42.25
50368;BME280;36281;34.132;-118.018;2023-02-10T11:05:31;100626.81;;;10.98;42.59
50368;BME280;36281;34.132;-118.018;2023-02-10T11:08:05;100639.03;;;10.99;42.87
50368;BME280;36281;34.132;-118.018;2023-02-10T11:10:38;100628.03;;;10.95;42.30
50368;BME280;36281;34.132;-118.018;2023-02-10T11:13:18;100622.28;;;10.92;42.45
50368;BME280;36281;34.132;-118.018;2023-02-10T11:15:48;100616.56;;;10.88;42.70
50368;BME280;36281;34.132;-118.018;2023-02-10T11:18:19;100609.19;;;10.83;43.27
50368;BME280;36281;34.132;-118.018;2023-02-10T11:20:54;100606.94;;;10.80;43.22
50368;BME280;36281;34.132;-118.018;2023-02-10T11:23:26;100600.59;;;10.75;42.83
50368;BME280;36281;34.132;-118.018;2023-02-10T11:26:01;100593.63;;;10.74;42.42
50368;BME280;36281;34.132;-118.018;2023-02-10T11:28:31;100595.47;;;10.73;41.38
50368;BME280;36281;34.132;-118.018;2023-02-10T11:31:03;100588.16;;;10.75;39.27
50368;BME280;36281;34.132;-118.018;2023-02-10T11:33:34;100594.50;;;10.81;39.05
50368;BME280;36281;34.132;-118.018;2023-02-10T11:36:06;100593.72;;;10.87;38.69
50368;BME280;36281;34.132;-118.018;2023-02-10T11:38:38;100590.50;;;10.92;38.30
50368;BME280;36281;34.132;-118.018;2023-02-10T11:41:09;100577.47;;;10.97;37.49
50368;BME280;36281;34.132;-118.018;2023-02-10T11:43:42;100575.03;;;11.02;37.36
50368;BME280;36281;34.132;-118.018;2023-02-10T11:46:21;100570.78;;;11.07;36.97
50368;BME280;36281;34.132;-118.018;2023-02-10T11:48:55;100571.81;;;11.13;36.03
50368;BME280;36281;34.132;-118.018;2023-02-10T11:51:25;100575.34;;;11.20;35.82
50368;BME280;36281;34.132;-118.018;2023-02-10T11:53:57;100581.69;;;11.26;35.29
50368;BME280;36281;34.132;-118.018;2023-02-10T11:56:32;100572.50;;;11.28;34.46
50368;BME280;36281;34.132;-118.018;2023-02-10T11:59:30;100568.84;;;11.36;33.42
50368;BME280;36281;34.132;-118.018;2023-02-10T12:02:02;100572.97;;;11.45;32.53
50368;BME280;36281;34.132;-118.018;2023-02-10T12:05:00;100571.78;;;11.54;32.04
50368;BME280;36281;34.132;-118.018;2023-02-10T12:07:43;100574.44;;;11.61;32.94
50368;BME280;36281;34.132;-118.018;2023-02-10T12:10:21;100574.03;;;11.64;33.32
50368;BME280;36281;34.132;-118.018;2023-02-10T12:13:00;100572.00;;;11.66;32.81
50368;BME280;36281;34.132;-118.018;2023-02-10T12:15:34;100573.44;;;11.69;32.85
50368;BME280;36281;34.132;-118.018;2023-02-10T12:18:16;100571.19;;;11.72;32.13
50368;BME280;36281;34.132;-118.018;2023-02-10T12:20:57;100560.38;;;11.74;31.74
50368;BME280;36281;34.132;-118.018;2023-02-10T12:23:48;100566.91;;;11.78;31.58
50368;BME280;36281;34.132;-118.018;2023-02-10T12:26:26;100566.31;;;11.82;31.72
50368;BME280;36281;34.132;-118.018;2023-02-10T12:29:03;100557.97;;;11.85;31.20
50368;BME280;36281;34.132;-118.018;2023-02-10T12:31:41;100558.38;;;11.89;31.01
50368;BME280;36281;34.132;-118.018;2023-02-10T12:34:27;100554.50;;;11.92;31.36
50368;BME280;36281;34.132;-118.018;2023-02-10T12:37:11;100561.25;;;11.94;30.48
50368;BME280;36281;34.132;-118.018;2023-02-10T12:39:54;100559.78;;;11.98;30.39
50368;BME280;36281;34.132;-118.018;2023-02-10T12:42:37;100563.31;;;11.99;30.29
50368;BME280;36281;34.132;-118.018;2023-02-10T12:45:16;100562.28;;;12.00;31.06
50368;BME280;36281;34.132;-118.018;2023-02-10T12:47:53;100560.22;;;12.02;30.76
50368;BME280;36281;34.132;-118.018;2023-02-10T12:50:35;100567.16;;;12.03;29.78
50368;BME280;36281;34.132;-118.018;2023-02-10T12:53:11;100557.34;;;12.03;30.34
50368;BME280;36281;34.132;-118.018;2023-02-10T12:55:49;100557.56;;;12.02;30.51
50368;BME280;36281;34.132;-118.018;2023-02-10T12:58:26;100543.47;;;12.01;30.78